sensor_id;sensor_type;location;lat;lon;timestamp;pressure;altitude;pressure_sealevel;temperature;humidity
62072;BME280;48031;48.542;13.232;2022-11-23T00:02:07;96095.53;;;10.66;nan
62072;BME280;48031;48.542;13.232;2022-11-23T00:06:09;96099.59;;;10.69;nan
62072;BME280;48031;48.542;13.232;2022-11-23T00:10:10;96100.13;;;10.71;nan
62072;BME280;48031;48.542;13.232;2022-11-23T00:14:12;96104.81;;;10.60;nan
62072;BME280;48031;48.542;13.232;2022-11-23T00:18:14;96115.94;;;10.20;nan
62072;BME280;48031;48.542;13.232;2022-11-23T00:22:16;96112.69;;;10.62;nan
62072;BME280;48031;48.542;13.232;2022-11-23T00:26:18;96118.28;;;10.70;nan
62072;BME280;48031;48.542;13.232;2022-11-23T00:30:20;96118.72;;;10.05;nan
62072;BME280;48031;48.542;13.232;2022-11-23T00:34:22;96101.00;;;10.27;nan
62072;BME280;48031;48.542;13.232;2022-11-23T00:38:25;96121.75;;;10.47;nan
62072;BME280;48031;48.542;13.232;2022-11-23T00:42:27;96115.56;;;10.41;nan
62072;BME280;48031;48.542;13.232;2022-11-23T00:46:34;96110.38;;;11.32;nan
62072;BME280;48031;48.542;13.232;2022-11-23T00:50:37;96117.47;;;10.75;nan
62072;BME280;48031;48.542;13.232;2022-11-23T00:54:39;96122.81;;;10.51;nan
62072;BME280;48031;48.542;13.232;2022-11-23T00:58:41;96122.31;;;10.44;nan
62072;BME280;48031;48.542;13.232;2022-11-23T01:02:43;96118.91;;;10.62;nan
62072;BME280;48031;48.542;13.232;2022-11-23T01:06:45;96124.53;;;9.83;nan
62072;BME280;48031;48.542;13.232;2022-11-23T01:16:16;96127.47;;;10.79;nan
62072;BME280;48031;48.542;13.232;2022-11-23T01:20:24;96124.66;;;10.12;nan
62072;BME280;48031;48.542;13.232;2022-11-23T01:24:26;96128.97;;;10.23;nan
62072;BME280;48031;48.542;13.232;2022-11-23T01:28:28;96131.22;;;10.06;nan
62072;BME280;48031;48.542;13.232;2022-11-23T01:32:29;96134.47;;;10.52;nan
62072;BME280;48031;48.542;13.232;2022-11-23T01:36:33;96140.31;;;10.30;nan
62072;BME280;48031;48.542;13.232;2022-11-23T01:40:40;96133.53;;;10.66;nan
62072;BME280;48031;48.542;13.232;2022-11-23T01:44:42;96137.94;;;10.13;nan
62072;BME280;48031;48.542;13.232;2022-11-23T01:52:48;96138.09;;;9.83;nan
62072;BME280;48031;48.542;13.232;2022-11-23T01:56:56;96139.63;;;10.53;nan
62072;BME280;48031;48.542;13.232;2022-11-23T02:01:00;96139.72;;;10.72;nan
62072;BME280;48031;48.542;13.232;2022-11-23T02:05:03;96144.59;;;10.41;nan
62072;BME280;48031;48.542;13.232;2022-11-23T02:09:06;96132.34;;;10.43;nan
62072;BME280;48031;48.542;13.232;2022-11-23T02:13:10;96145.25;;;10.62;nan
62072;BME280;48031;48.542;13.232;2022-11-23T02:17:13;96145.06;;;10.53;nan
62072;BME280;48031;48.542;13.232;2022-11-23T02:21:15;96141.03;;;10.79;nan
62072;BME280;48031;48.542;13.232;2022-11-23T02:29:56;96136.56;;;10.60;nan
62072;BME280;48031;48.542;13.232;2022-11-23T02:33:59;96146.59;;;10.64;nan
62072;BME280;48031;48.542;13.232;2022-11-23T02:38:04;96140.84;;;11.00;nan
62072;BME280;48031;48.542;13.232;2022-11-23T02:42:07;96133.63;;;10.90;nan
62072;BME280;48031;48.542;13.232;2022-11-23T02:46:09;96131.38;;;10.97;nan
62072;BME280;48031;48.542;13.232;2022-11-23T02:50:12;96131.88;;;10.99;nan
62072;BME280;48031;48.542;13.232;2022-11-23T02:54:16;96137.19;;;11.14;nan
62072;BME280;48031;48.542;13.232;2022-11-23T02:58:18;96137.13;;;10.91;nan
62072;BME280;48031;48.542;13.232;2022-11-23T03:02:20;96134.97;;;10.88;nan
62072;BME280;48031;48.542;13.232;2022-11-23T03:06:22;96133.63;;;10.56;nan
62072;BME280;48031;48.542;13.232;2022-11-23T03:10:24;96135.03;;;10.49;nan
62072;BME280;48031;48.542;13.232;2022-11-23T03:14:27;96128.88;;;10.72;nan
62072;BME280;48031;48.542;13.232;2022-11-23T03:18:32;96144.16;;;10.24;nan
62072;BME280;48031;48.542;13.232;2022-11-23T03:22:36;96143.41;;;10.52;nan
62072;BME280;48031;48.542;13.232;2022-11-23T03:26:38;96128.69;;;10.63;nan
62072;BME280;48031;48.542;13.232;2022-11-23T03:30:43;96150.75;;;10.02;nan
62072;BME280;48031;48.542;13.232;2022-11-23T03:34:45;96149.09;;;10.56;nan
62072;BME280;48031;48.542;13.232;2022-11-23T03:38:48;96149.19;;;10.79;nan
62072;BME280;48031;48.542;13.232;2022-11-23T03:43:01;96155.66;;;10.83;nan
62072;BME280;48031;48.542;13.232;2022-11-23T03:47:03;96155.28;;;10.95;nan
62072;BME280;48031;48.542;13.232;2022-11-23T03:51:07;96149.91;;;10.56;nan
62072;BME280;48031;48.542;13.232;2022-11-23T03:55:10;96151.94;;;10.35;nan
62072;BME280;48031;48.542;13.232;2022-11-23T03:59:12;96144.66;;;10.70;nan
62072;BME280;48031;48.542;13.232;2022-11-23T04:03:13;96147.59;;;10.34;nan
62072;BME280;48031;48.542;13.232;2022-11-23T04:07:34;96141.97;;;10.94;nan
62072;BME280;48031;48.542;13.232;2022-11-23T04:11:38;96139.28;;;10.94;nan
62072;BME280;48031;48.542;13.232;2022-11-23T04:15:41;96141.94;;;10.70;nan
62072;BME280;48031;48.542;13.232;2022-11-23T04:19:44;96144.38;;;10.66;nan
62072;BME280;48031;48.542;13.232;2022-11-23T04:23:48;96148.63;;;10.77;nan
62072;BME280;48031;48.542;13.232;2022-11-23T04:27:50;96148.09;;;10.80;nan
62072;BME280;48031;48.542;13.232;2022-11-23T04:31:52;96146.38;;;10.90;nan
62072;BME280;48031;48.542;13.232;2022-11-23T04:35:55;96144.53;;;10.85;nan
62072;BME280;48031;48.542;13.232;2022-11-23T04:39:58;96157.91;;;11.05;nan
62072;BME280;48031;48.542;13.232;2022-11-23T04:44:13;96161.84;;;10.89;nan
62072;BME280;48031;48.542;13.232;2022-11-23T04:48:16;96159.16;;;11.18;nan
62072;BME280;48031;48.542;13.232;2022-11-23T04:52:18;96165.00;;;11.01;nan
62072;BME280;48031;48.542;13.232;2022-11-23T04:56:21;96167.38;;;10.79;nan
62072;BME280;48031;48.542;13.232;2022-11-23T05:00:23;96172.16;;;11.21;nan
62072;BME280;48031;48.542;13.232;2022-11-23T05:04:28;96172.41;;;11.24;nan
62072;BME280;48031;48.542;13.232;2022-11-23T05:08:30;96177.41;;;10.78;nan
62072;BME280;48031;48.542;13.232;2022-11-23T05:12:52;96177.81;;;10.62;nan
62072;BME280;48031;48.542;13.232;2022-11-23T05:16:54;96173.66;;;10.74;nan
62072;BME280;48031;48.542;13.232;2022-11-23T05:20:56;96168.66;;;10.87;nan
62072;BME280;48031;48.542;13.232;2022-11-23T05:24:58;96176.09;;;10.71;nan
62072;BME280;48031;48.542;13.232;2022-11-23T05:29:02;96168.69;;;10.81;nan
62072;BME280;48031;48.542;13.232;2022-11-23T05:33:05;96163.16;;;10.97;nan
62072;BME280;48031;48.542;13.232;2022-11-23T05:37:07;96172.22;;;10.82;nan
62072;BME280;48031;48.542;13.232;2022-11-23T05:41:13;96179.88;;;10.75;nan
62072;BME280;48031;48.542;13.232;2022-11-23T05:45:17;96178.03;;;10.65;nan
62072;BME280;48031;48.542;13.232;2022-11-23T05:49:21;96170.94;;;10.74;nan
62072;BME280;48031;48.542;13.232;2022-11-23T05:53:23;96174.22;;;10.27;nan
62072;BME280;48031;48.542;13.232;2022-11-23T05:57:30;96172.06;;;10.68;nan
62072;BME280;48031;48.542;13.232;2022-11-23T06:01:33;96174.06;;;10.53;nan
62072;BME280;48031;48.542;13.232;2022-11-23T06:05:36;96184.66;;;10.49;nan
62072;BME280;48031;48.542;13.232;2022-11-23T06:09:40;96162.50;;;10.42;nan
62072;BME280;48031;48.542;13.232;2022-11-23T06:13:46;96163.69;;;10.94;nan
62072;BME280;48031;48.542;13.232;2022-11-23T06:17:49;96165.31;;;10.95;nan
62072;BME280;48031;48.542;13.232;2022-11-23T06:21:55;96158.13;;;10.80;nan
62072;BME280;48031;48.542;13.232;2022-11-23T06:25:59;96160.03;;;10.79;nan
62072;BME280;48031;48.542;13.232;2022-11-23T06:30:04;96161.53;;;10.96;nan
62072;BME280;48031;48.542;13.232;2022-11-23T06:34:06;96158.25;;;10.16;nan
62072;BME280;48031;48.542;13.232;2022-11-23T06:38:08;96161.63;;;10.47;nan
62072;BME280;48031;48.542;13.232;2022-11-23T06:42:12;96165.56;;;10.20;nan
62072;BME280;48031;48.542;13.232;2022-11-23T06:46:34;96166.63;;;10.68;nan
62072;BME280;48031;48.542;13.232;2022-11-23T06:50:36;96170.16;;;10.69;nan
62072;BME280;48031;48.542;13.232;2022-11-23T06:54:38;96170.75;;;10.61;nan
62072;BME280;48031;48.542;13.232;2022-11-23T06:58:40;96177.59;;;10.87;nan
62072;BME280;48031;48.542;13.232;2022-11-23T07:02:51;96177.69;;;11.40;nan
62072;BME280;48031;48.542;13.232;2022-11-23T07:06:55;96191.78;;;11.13;nan
62072;BME280;48031;48.542;13.232;2022-11-23T07:11:06;96195.03;;;10.81;nan
62072;BME280;48031;48.542;13.232;2022-11-23T07:15:08;96197.16;;;11.18;nan
62072;BME280;48031;48.542;13.232;2022-11-23T07:19:12;96199.34;;;10.82;nan
62072;BME280;48031;48.542;13.232;2022-11-23T07:23:15;96199.88;;;10.45;nan
62072;BME280;48031;48.542;13.232;2022-11-23T07:27:18;96197.53;;;11.06;nan
62072;BME280;48031;48.542;13.232;2022-11-23T07:31:21;96189.69;;;11.34;nan
62072;BME280;48031;48.542;13.232;2022-11-23T07:35:23;96186.88;;;11.15;nan
62072;BME280;48031;48.542;13.232;2022-11-23T07:39:25;96208.53;;;10.91;nan
62072;BME280;48031;48.542;13.232;2022-11-23T07:43:47;96208.97;;;11.32;nan
62072;BME280;48031;48.542;13.232;2022-11-23T07:47:56;96205.16;;;12.15;nan
62072;BME280;48031;48.542;13.232;2022-11-23T07:51:58;96223.28;;;11.14;nan
62072;BME280;48031;48.542;13.232;2022-11-23T07:56:00;96225.47;;;11.12;nan
62072;BME280;48031;48.542;13.232;2022-11-23T08:00:03;96217.50;;;11.49;nan
62072;BME280;48031;48.542;13.232;2022-11-23T08:04:12;96218.13;;;11.70;nan
62072;BME280;48031;48.542;13.232;2022-11-23T08:08:14;96228.59;;;11.29;nan
62072;BME280;48031;48.542;13.232;2022-11-23T08:12:16;96224.78;;;11.30;nan
62072;BME280;48031;48.542;13.232;2022-11-23T08:16:17;96219.69;;;11.81;nan
62072;BME280;48031;48.542;13.232;2022-11-23T08:20:20;96229.09;;;11.02;nan
62072;BME280;48031;48.542;13.232;2022-11-23T08:24:22;96227.47;;;11.88;nan
62072;BME280;48031;48.542;13.232;2022-11-23T08:28:24;96227.81;;;11.23;nan
62072;BME280;48031;48.542;13.232;2022-11-23T08:32:26;96213.94;;;11.83;nan
62072;BME280;48031;48.542;13.232;2022-11-23T08:36:28;96220.13;;;11.59;nan
62072;BME280;48031;48.542;13.232;2022-11-23T08:40:30;96215.88;;;11.53;nan
62072;BME280;48031;48.542;13.232;2022-11-23T08:44:32;96222.16;;;12.25;nan
62072;BME280;48031;48.542;13.232;2022-11-23T08:48:34;96219.25;;;11.93;nan
62072;BME280;48031;48.542;13.232;2022-11-23T08:52:36;96217.47;;;11.83;nan
62072;BME280;48031;48.542;13.232;2022-11-23T08:56:38;96227.38;;;12.40;nan
62072;BME280;48031;48.542;13.232;2022-11-23T09:00:40;96228.28;;;12.55;nan
62072;BME280;48031;48.542;13.232;2022-11-23T09:04:41;96223.81;;;12.64;nan
62072;BME280;48031;48.542;13.232;2022-11-23T09:08:43;96217.09;;;12.93;nan
62072;BME280;48031;48.542;13.232;2022-11-23T09:12:46;96217.94;;;13.26;nan
62072;BME280;48031;48.542;13.232;2022-11-23T09:16:48;96228.50;;;12.58;nan
62072;BME280;48031;48.542;13.232;2022-11-23T09:20:50;96218.69;;;12.38;nan
62072;BME280;48031;48.542;13.232;2022-11-23T09:24:52;96213.50;;;12.42;nan
62072;BME280;48031;48.542;13.232;2022-11-23T09:28:54;96202.66;;;13.12;nan
62072;BME280;48031;48.542;13.232;2022-11-23T09:32:56;96201.25;;;12.96;nan
62072;BME280;48031;48.542;13.232;2022-11-23T09:36:58;96203.47;;;13.12;nan
62072;BME280;48031;48.542;13.232;2022-11-23T09:41:21;96201.53;;;13.91;nan
62072;BME280;48031;48.542;13.232;2022-11-23T09:45:29;96212.38;;;12.62;nan
62072;BME280;48031;48.542;13.232;2022-11-23T09:53:50;96198.91;;;13.86;nan
62072;BME280;48031;48.542;13.232;2022-11-23T09:57:57;96197.47;;;13.89;nan
62072;BME280;48031;48.542;13.232;2022-11-23T10:02:00;96211.47;;;13.22;nan
62072;BME280;48031;48.542;13.232;2022-11-23T10:10:44;96200.53;;;13.87;nan
62072;BME280;48031;48.542;13.232;2022-11-23T10:14:57;96205.97;;;14.42;nan
62072;BME280;48031;48.542;13.232;2022-11-23T10:23:54;96202.94;;;14.79;nan
62072;BME280;48031;48.542;13.232;2022-11-23T10:28:00;96192.78;;;13.62;nan
62072;BME280;48031;48.542;13.232;2022-11-23T10:32:15;96188.84;;;14.64;nan
62072;BME280;48031;48.542;13.232;2022-11-23T10:36:22;96185.66;;;13.80;nan
62072;BME280;48031;48.542;13.232;2022-11-23T10:40:26;96187.53;;;13.52;nan
62072;BME280;48031;48.542;13.232;2022-11-23T10:44:31;96191.75;;;13.30;nan
62072;BME280;48031;48.542;13.232;2022-11-23T10:48:35;96195.31;;;13.72;nan
62072;BME280;48031;48.542;13.232;2022-11-23T10:52:38;96195.25;;;12.80;nan
62072;BME280;48031;48.542;13.232;2022-11-23T10:56:45;96190.09;;;13.89;nan
62072;BME280;48031;48.542;13.232;2022-11-23T11:00:58;96186.25;;;14.45;nan
62072;BME280;48031;48.542;13.232;2022-11-23T11:10:00;96190.56;;;14.32;nan
62072;BME280;48031;48.542;13.232;2022-11-23T11:14:15;96187.25;;;13.67;nan
62072;BME280;48031;48.542;13.232;2022-11-23T11:18:18;96192.94;;;13.70;nan
62072;BME280;48031;48.542;13.232;2022-11-23T11:22:34;96181.88;;;14.57;nan
62072;BME280;48031;48.542;13.232;2022-11-23T11:26:49;96187.69;;;15.01;nan
62072;BME280;48031;48.542;13.232;2022-11-23T11:31:02;96177.16;;;13.67;nan
62072;BME280;48031;48.542;13.232;2022-11-23T11:35:18;96183.22;;;14.46;nan
62072;BME280;48031;48.542;13.232;2022-11-23T11:39:31;96182.84;;;13.98;nan
62072;BME280;48031;48.542;13.232;2022-11-23T11:43:48;96185.66;;;14.48;nan
62072;BME280;48031;48.542;13.232;2022-11-23T11:47:58;96168.63;;;14.65;nan
62072;BME280;48031;48.542;13.232;2022-11-23T11:52:07;96172.88;;;14.43;nan
62072;BME280;48031;48.542;13.232;2022-11-23T12:00:33;96163.59;;;14.31;nan
62072;BME280;48031;48.542;13.232;2022-11-23T12:09:00;96165.13;;;14.37;nan
62072;BME280;48031;48.542;13.232;2022-11-23T12:13:04;96165.22;;;14.32;nan
62072;BME280;48031;48.542;13.232;2022-11-23T12:17:33;96165.91;;;14.51;nan
62072;BME280;48031;48.542;13.232;2022-11-23T12:21:54;96162.63;;;14.63;nan
62072;BME280;48031;48.542;13.232;2022-11-23T12:30:50;96163.31;;;14.68;nan
62072;BME280;48031;48.542;13.232;2022-11-23T12:43:56;96166.06;;;14.68;nan
62072;BME280;48031;48.542;13.232;2022-11-23T13:01:03;96165.06;;;14.64;nan
62072;BME280;48031;48.542;13.232;2022-11-23T13:13:52;96164.03;;;13.97;nan
62072;BME280;48031;48.542;13.232;2022-11-23T13:22:41;96157.47;;;13.98;nan
62072;BME280;48031;48.542;13.232;2022-11-23T13:40:01;96157.66;;;14.01;nan
62072;BME280;48031;48.542;13.232;2022-11-23T13:44:24;96162.81;;;14.66;nan
62072;BME280;48031;48.542;13.232;2022-11-23T13:48:27;96153.69;;;13.39;nan
62072;BME280;48031;48.542;13.232;2022-11-23T13:52:50;96144.59;;;14.26;nan
62072;BME280;48031;48.542;13.232;2022-11-23T13:57:01;96135.28;;;14.40;nan
62072;BME280;48031;48.542;13.232;2022-11-23T14:01:06;96141.59;;;13.45;nan
62072;BME280;48031;48.542;13.232;2022-11-23T14:05:34;96140.84;;;14.93;nan
62072;BME280;48031;48.542;13.232;2022-11-23T14:09:58;96150.47;;;15.35;nan
62072;BME280;48031;48.542;13.232;2022-11-23T14:14:17;96151.34;;;14.28;nan
62072;BME280;48031;48.542;13.232;2022-11-23T14:36:43;96161.84;;;14.84;nan
62072;BME280;48031;48.542;13.232;2022-11-23T14:41:03;96158.41;;;14.92;nan
62072;BME280;48031;48.542;13.232;2022-11-23T14:45:12;96155.50;;;14.53;nan
62072;BME280;48031;48.542;13.232;2022-11-23T14:49:14;96151.81;;;13.67;nan
62072;BME280;48031;48.542;13.232;2022-11-23T14:53:16;96161.38;;;13.37;nan
62072;BME280;48031;48.542;13.232;2022-11-23T14:57:23;96165.41;;;13.07;nan
62072;BME280;48031;48.542;13.232;2022-11-23T15:01:25;96160.13;;;12.97;nan
62072;BME280;48031;48.542;13.232;2022-11-23T15:05:31;96150.91;;;13.12;nan
62072;BME280;48031;48.542;13.232;2022-11-23T15:13:51;96148.41;;;12.97;nan
62072;BME280;48031;48.542;13.232;2022-11-23T15:17:58;96142.56;;;12.71;nan
62072;BME280;48031;48.542;13.232;2022-11-23T15:22:01;96155.13;;;11.92;nan
62072;BME280;48031;48.542;13.232;2022-11-23T15:26:05;96154.47;;;12.37;nan
62072;BME280;48031;48.542;13.232;2022-11-23T15:30:33;96159.91;;;11.76;nan
62072;BME280;48031;48.542;13.232;2022-11-23T15:34:35;96168.03;;;11.81;nan
62072;BME280;48031;48.542;13.232;2022-11-23T15:38:37;96171.94;;;11.70;nan
62072;BME280;48031;48.542;13.232;2022-11-23T15:42:39;96167.72;;;11.54;nan
62072;BME280;48031;48.542;13.232;2022-11-23T15:46:41;96179.63;;;11.05;nan
62072;BME280;48031;48.542;13.232;2022-11-23T15:50:53;96176.97;;;11.29;nan
62072;BME280;48031;48.542;13.232;2022-11-23T15:54:55;96188.50;;;10.43;nan
62072;BME280;48031;48.542;13.232;2022-11-23T15:59:02;96174.03;;;11.25;nan
62072;BME280;48031;48.542;13.232;2022-11-23T16:03:28;96176.59;;;11.12;nan
62072;BME280;48031;48.542;13.232;2022-11-23T16:07:31;96180.16;;;10.73;nan
62072;BME280;48031;48.542;13.232;2022-11-23T16:11:34;96180.72;;;11.04;nan
62072;BME280;48031;48.542;13.232;2022-11-23T16:15:38;96182.16;;;10.14;nan
62072;BME280;48031;48.542;13.232;2022-11-23T16:19:48;96179.06;;;10.74;nan
62072;BME280;48031;48.542;13.232;2022-11-23T16:23:53;96188.06;;;10.16;nan
62072;BME280;48031;48.542;13.232;2022-11-23T16:28:14;96183.78;;;10.64;nan
62072;BME280;48031;48.542;13.232;2022-11-23T16:36:26;96190.22;;;10.29;nan
62072;BME280;48031;48.542;13.232;2022-11-23T16:40:28;96188.25;;;9.70;nan
62072;BME280;48031;48.542;13.232;2022-11-23T16:44:30;96186.75;;;9.29;nan
62072;BME280;48031;48.542;13.232;2022-11-23T16:48:40;96194.19;;;9.82;nan
62072;BME280;48031;48.542;13.232;2022-11-23T16:52:42;96194.31;;;9.47;nan
62072;BME280;48031;48.542;13.232;2022-11-23T16:56:44;96193.16;;;9.73;nan
62072;BME280;48031;48.542;13.232;2022-11-23T17:00:47;96204.66;;;10.04;nan
62072;BME280;48031;48.542;13.232;2022-11-23T17:04:50;96192.09;;;9.54;nan
62072;BME280;48031;48.542;13.232;2022-11-23T17:08:52;96186.63;;;9.79;nan
62072;BME280;48031;48.542;13.232;2022-11-23T17:13:20;96184.03;;;10.13;nan
62072;BME280;48031;48.542;13.232;2022-11-23T17:17:23;96183.53;;;9.06;nan
62072;BME280;48031;48.542;13.232;2022-11-23T17:21:25;96187.50;;;9.59;nan
62072;BME280;48031;48.542;13.232;2022-11-23T17:25:26;96191.94;;;10.05;nan
62072;BME280;48031;48.542;13.232;2022-11-23T17:29:28;96188.34;;;9.50;nan
62072;BME280;48031;48.542;13.232;2022-11-23T17:33:30;96192.19;;;9.29;nan
62072;BME280;48031;48.542;13.232;2022-11-23T17:37:32;96188.09;;;9.36;nan
62072;BME280;48031;48.542;13.232;2022-11-23T17:41:34;96201.34;;;9.43;nan
62072;BME280;48031;48.542;13.232;2022-11-23T17:45:35;96201.63;;;9.36;nan
62072;BME280;48031;48.542;13.232;2022-11-23T17:49:37;96208.16;;;9.35;nan
62072;BME280;48031;48.542;13.232;2022-11-23T17:53:39;96209.25;;;9.04;nan
62072;BME280;48031;48.542;13.232;2022-11-23T17:57:41;96205.72;;;8.98;nan
62072;BME280;48031;48.542;13.232;2022-11-23T18:01:43;96206.00;;;8.92;nan
62072;BME280;48031;48.542;13.232;2022-11-23T18:05:45;96207.91;;;9.01;nan
62072;BME280;48031;48.542;13.232;2022-11-23T18:09:47;96202.22;;;8.93;nan
62072;BME280;48031;48.542;13.232;2022-11-23T18:13:49;96196.78;;;9.28;nan
62072;BME280;48031;48.542;13.232;2022-11-23T18:17:51;96187.06;;;9.07;nan
62072;BME280;48031;48.542;13.232;2022-11-23T18:21:53;96188.69;;;8.93;nan
62072;BME280;48031;48.542;13.232;2022-11-23T18:26:04;96184.81;;;9.44;nan
62072;BME280;48031;48.542;13.232;2022-11-23T18:30:06;96187.31;;;8.65;nan
62072;BME280;48031;48.542;13.232;2022-11-23T18:34:08;96185.16;;;8.87;nan
62072;BME280;48031;48.542;13.232;2022-11-23T18:38:10;96175.94;;;8.32;nan
62072;BME280;48031;48.542;13.232;2022-11-23T18:42:12;96186.75;;;8.53;nan
62072;BME280;48031;48.542;13.232;2022-11-23T18:46:15;96188.41;;;8.94;nan
62072;BME280;48031;48.542;13.232;2022-11-23T18:50:20;96203.53;;;8.40;nan
62072;BME280;48031;48.542;13.232;2022-11-23T18:54:22;96215.84;;;8.05;nan
62072;BME280;48031;48.542;13.232;2022-11-23T18:58:23;96218.09;;;8.33;nan
62072;BME280;48031;48.542;13.232;2022-11-23T19:02:25;96214.34;;;7.72;nan
62072;BME280;48031;48.542;13.232;2022-11-23T19:06:28;96226.22;;;8.33;nan
62072;BME280;48031;48.542;13.232;2022-11-23T19:10:34;96231.41;;;8.60;nan
62072;BME280;48031;48.542;13.232;2022-11-23T19:14:36;96230.19;;;8.16;nan
62072;BME280;48031;48.542;13.232;2022-11-23T19:18:38;96243.25;;;8.39;nan
62072;BME280;48031;48.542;13.232;2022-11-23T19:22:40;96246.13;;;8.07;nan
62072;BME280;48031;48.542;13.232;2022-11-23T19:26:42;96241.16;;;7.84;nan
62072;BME280;48031;48.542;13.232;2022-11-23T19:30:43;96239.66;;;8.18;nan
62072;BME280;48031;48.542;13.232;2022-11-23T19:34:45;96255.50;;;7.94;nan
62072;BME280;48031;48.542;13.232;2022-11-23T19:38:48;96260.66;;;7.96;nan
62072;BME280;48031;48.542;13.232;2022-11-23T19:42:50;96275.16;;;7.38;nan
62072;BME280;48031;48.542;13.232;2022-11-23T19:46:51;96263.44;;;8.21;nan
62072;BME280;48031;48.542;13.232;2022-11-23T19:51:00;96271.72;;;8.62;nan
62072;BME280;48031;48.542;13.232;2022-11-23T19:55:03;96267.78;;;8.27;nan
62072;BME280;48031;48.542;13.232;2022-11-23T19:59:06;96280.63;;;7.95;nan
62072;BME280;48031;48.542;13.232;2022-11-23T20:03:08;96275.28;;;8.05;nan
62072;BME280;48031;48.542;13.232;2022-11-23T20:07:10;96275.66;;;7.77;nan
62072;BME280;48031;48.542;13.232;2022-11-23T20:11:15;96273.28;;;8.43;nan
62072;BME280;48031;48.542;13.232;2022-11-23T20:15:17;96269.13;;;7.63;nan
62072;BME280;48031;48.542;13.232;2022-11-23T20:19:18;96275.41;;;7.73;nan
62072;BME280;48031;48.542;13.232;2022-11-23T20:23:20;96292.88;;;7.66;nan
62072;BME280;48031;48.542;13.232;2022-11-23T20:27:22;96303.63;;;7.56;nan
62072;BME280;48031;48.542;13.232;2022-11-23T20:31:26;96307.13;;;8.03;nan
62072;BME280;48031;48.542;13.232;2022-11-23T20:35:29;96306.41;;;7.71;nan
62072;BME280;48031;48.542;13.232;2022-11-23T20:39:31;96311.41;;;7.89;nan
62072;BME280;48031;48.542;13.232;2022-11-23T20:43:33;96331.34;;;7.83;nan
62072;BME280;48031;48.542;13.232;2022-11-23T20:47:35;96341.06;;;7.79;nan
62072;BME280;48031;48.542;13.232;2022-11-23T20:51:37;96359.84;;;7.64;nan
62072;BME280;48031;48.542;13.232;2022-11-23T20:55:39;96374.25;;;7.74;nan
62072;BME280;48031;48.542;13.232;2022-11-23T20:59:41;96373.47;;;7.79;nan
62072;BME280;48031;48.542;13.232;2022-11-23T21:03:48;96372.72;;;9.03;nan
62072;BME280;48031;48.542;13.232;2022-11-23T21:07:51;96377.25;;;8.77;nan
62072;BME280;48031;48.542;13.232;2022-11-23T21:11:53;96399.28;;;8.44;nan
62072;BME280;48031;48.542;13.232;2022-11-23T21:16:13;96416.94;;;8.19;nan
62072;BME280;48031;48.542;13.232;2022-11-23T21:20:16;96422.03;;;8.53;nan
62072;BME280;48031;48.542;13.232;2022-11-23T21:24:18;96422.63;;;8.65;nan
62072;BME280;48031;48.542;13.232;2022-11-23T21:28:20;96421.06;;;8.27;nan
62072;BME280;48031;48.542;13.232;2022-11-23T21:32:21;96434.34;;;8.81;nan
62072;BME280;48031;48.542;13.232;2022-11-23T21:36:23;96441.09;;;8.73;nan
62072;BME280;48031;48.542;13.232;2022-11-23T21:40:25;96429.50;;;8.88;nan
62072;BME280;48031;48.542;13.232;2022-11-23T21:44:27;96438.47;;;8.98;nan
62072;BME280;48031;48.542;13.232;2022-11-23T21:48:29;96433.06;;;9.03;nan
62072;BME280;48031;48.542;13.232;2022-11-23T21:52:31;96458.63;;;9.48;nan
62072;BME280;48031;48.542;13.232;2022-11-23T21:56:33;96455.41;;;9.51;nan
62072;BME280;48031;48.542;13.232;2022-11-23T22:00:34;96464.63;;;9.60;nan
62072;BME280;48031;48.542;13.232;2022-11-23T22:04:36;96465.44;;;9.71;nan
62072;BME280;48031;48.542;13.232;2022-11-23T22:08:43;96476.03;;;9.97;nan
62072;BME280;48031;48.542;13.232;2022-11-23T22:12:45;96474.09;;;10.69;nan
62072;BME280;48031;48.542;13.232;2022-11-23T22:16:48;96508.41;;;9.27;nan
62072;BME280;48031;48.542;13.232;2022-11-23T22:20:50;96500.91;;;9.54;nan
62072;BME280;48031;48.542;13.232;2022-11-23T22:24:52;96511.75;;;8.87;nan
62072;BME280;48031;48.542;13.232;2022-11-23T22:28:55;96495.47;;;9.44;nan
62072;BME280;48031;48.542;13.232;2022-11-23T22:32:57;96526.81;;;8.30;nan
62072;BME280;48031;48.542;13.232;2022-11-23T22:36:58;96521.44;;;9.30;nan
62072;BME280;48031;48.542;13.232;2022-11-23T22:41:01;96520.25;;;9.10;nan
62072;BME280;48031;48.542;13.232;2022-11-23T22:45:04;96522.59;;;8.45;nan
62072;BME280;48031;48.542;13.232;2022-11-23T22:49:05;96521.22;;;9.46;nan
62072;BME280;48031;48.542;13.232;2022-11-23T22:53:08;96525.47;;;9.27;nan
62072;BME280;48031;48.542;13.232;2022-11-23T22:57:10;96536.63;;;9.41;nan
62072;BME280;48031;48.542;13.232;2022-11-23T23:01:15;96532.13;;;9.92;nan
62072;BME280;48031;48.542;13.232;2022-11-23T23:05:17;96534.78;;;9.56;nan
62072;BME280;48031;48.542;13.232;2022-11-23T23:09:19;96537.84;;;9.85;nan
62072;BME280;48031;48.542;13.232;2022-11-23T23:13:21;96541.06;;;9.82;nan
62072;BME280;48031;48.542;13.232;2022-11-23T23:17:23;96536.47;;;9.88;nan
62072;BME280;48031;48.542;13.232;2022-11-23T23:21:27;96535.72;;;10.48;nan
62072;BME280;48031;48.542;13.232;2022-11-23T23:25:29;96539.41;;;9.66;nan
62072;BME280;48031;48.542;13.232;2022-11-23T23:29:31;96543.16;;;9.50;nan
62072;BME280;48031;48.542;13.232;2022-11-23T23:33:33;96541.63;;;9.84;nan
62072;BME280;48031;48.542;13.232;2022-11-23T23:37:35;96549.88;;;9.42;nan
62072;BME280;48031;48.542;13.232;2022-11-23T23:41:37;96538.94;;;9.99;nan
62072;BME280;48031;48.542;13.232;2022-11-23T23:45:39;96544.03;;;9.81;nan
62072;BME280;48031;48.542;13.232;2022-11-23T23:49:41;96553.03;;;10.07;nan
62072;BME280;48031;48.542;13.232;2022-11-23T23:53:43;96547.09;;;10.20;nan
62072;BME280;48031;48.542;13.232;2022-11-23T23:57:45;96552.53;;;10.20;nan
